Vliegveldwaarnemingen Nederland - (AUTO) METAR

Luchtvaartmeteorologische informatie voor operationeel gebruik en vluchtvoorbereiding is beschikbaar op www.luchtvaartmeteo.nl.

ZCZC
SA212325 EHKD     DE KOOY/DE KOOY   NLD   1 m.
METAR EHKD 212325Z AUTO 26005KT 4100 BR FEW009 OVC010 08/08 Q1030 GRN=

ZCZC
SA212325 EHFD     F3-FB-1   NLD   50 m.
METAR EHFD 212325Z AUTO 29008KT 3300 BR FEW001/// BKN008/// BKN010///
08/07 Q1029 W///H///=

ZCZC
SA212325 EHAM     AMSTERDAM/SCHIPHOL   NLD   -3 m.
METAR EHAM 212325Z 27003KT 5000 BR FEW004 OVC017 08/08 Q1031 BECMG
4500=

ZCZC
SA212325 EHVL     VLIELAND   NLD   10 m.
METAR EHVL 212325Z AUTO 31004KT 1900 BR FEW000 BKN001 OVC005 08/08
Q1030 RED=

ZCZC
SA212325 EHJR     K13-A   NLD   37 m.
METAR EHJR 212325Z AUTO 28012KT //// // ///////// 09/09 Q1030 RE//
W07/H7=

ZCZC
SA212325 EHLW     LEEUWARDEN/LEEUWARDEN   NLD   1 m.
METAR EHLW 212325Z AUTO 28003KT 1200 BR BKN001 OVC002 08/08 Q1030 RED=

ZCZC
SA212325 EHDL     ARNHEM/DEELEN   NLD   48 m.
METAR EHDL 212325Z AUTO 26003KT 210V320 1100 BR BKN001 OVC002 08/08
Q1030 RED=

ZCZC
SA212325 EHGG     GRONINGEN/EELDE   NLD   5 m.
METAR EHGG 212325Z AUTO 26004KT 1700 BR BKN001 OVC003 08/08 Q1030=

ZCZC
SA212325 EHSC     LICHTEILAND GOEREE   NLD   22 m.
METAR EHSC 212325Z AUTO 26012KT 0400 -RA ///////// 06/06 Q1031
W06/H6=

ZCZC
SA212325 EHSA     EURO PLATFORM   NLD   19 m.
METAR EHSA 212325Z AUTO 23013KT 0350 DZ ///////// 07/07 Q1031 W05/H7=

ZCZC
SA212325 EHWO     WOENSDRECHT/WOENSDRECHT   NLD   19 m.
METAR EHWO 212325Z AUTO 26006KT 240V310 1200 BR OVC001 07/07 Q1031 RED=

ZCZC
SA212325 EHRD     ROTTERDAM/THE HAGUE AIRPORT   NLD   -5 m.
METAR EHRD 212325Z AUTO 24005KT 2500 BR OVC002 07/07 Q1031 BECMG
1200=

ZCZC
SA212325 EHGR     GILZE-RIJEN/GILZE-RIJEN   NLD   14 m.
METAR EHGR 212325Z AUTO 27003KT 4200 BR OVC005 09/08 Q1031 YLO=

ZCZC
SA212325 EHEH     EINDHOVEN/EINDHOVEN   NLD   22 m.
METAR EHEH 212325Z AUTO 26002KT 7000 BR OVC013 09/08 Q1031 GRN=

ZCZC
SA212325 EHVK     VOLKEL/VOLKEL   NLD   21 m.
METAR EHVK 212325Z AUTO 26004KT 240V300 1300 BR BKN001 BKN003 OVC004
09/09 Q1031 RED=

ZCZC
SA212325 EHBK     MAASTRICHT/MAASTRICHT-AACHEN   NLD   114 m.
METAR EHBK 212325Z AUTO 27003KT 230V310 8000 OVC023 10/07 Q1031=

ZCZC
SA212325 EHFZ     F16-A   NLD   43 m.
METAR EHFZ 212325Z AUTO 31008KT 7000 NCD 09/08 Q1030 W///H///=

ZCZC
SA212325 EHKV     K14-FA-1C   NLD   41 m.
METAR EHKV 212325Z AUTO VRB07KT 9000 NCD 10/08 Q1031 W///H///=

ZCZC
SA212325 EHMG     L9-FF-1   NLD   44 m.
METAR EHMG 212325Z AUTO ///08KT 4300 BR FEW013 08/08 Q1030 W///H///=

ZCZC
SA212325 EHMA     AWG-1   NLD   40 m.
METAR EHMA 212325Z AUTO 30008KT 0450 -RADZ FEW000 SCT007 BKN011 07/07
Q1030 W///H///=

ZCZC
SA212325 EHDV     D15-FA-1   NLD   42 m.
METAR EHDV 212325Z AUTO 27010KT 7000 NCD 09/08 Q1029 W///H///=

ZCZC
SA212325 EHAK     A12-CPP   NLD   48 m.
METAR EHAK 212325Z AUTO 34004KT 1900 BR SCT000/// BKN008/// OVC009///
09/09 Q1029 W///H///=

ZCZC
SA212325 EHQE     HOORN-A   NLD   50 m.
METAR EHQE 212325Z AUTO 30008KT 9000 FEW022 09/08 Q1030 W///H///=

ZCZC
SA212325 EHJA     J6-A   NLD   45 m.
METAR EHJA 212325Z AUTO 29014KT 9999 NCD 10/08 Q1030 W///H///=

ZCZC
SA212325 EHPG     P11-B   NLD   41 m.
METAR EHPG 212325Z AUTO 24012KT 6000 NSC 08/08 Q1030 W///H///=

ZCZC
SA212325 EHHW     BUITENGAATS/BG-OHVS2      42 m.
METAR EHHW 212325Z AUTO 32007KT //// // BKN004/// BKN006/// OVC008///
07/07 Q1029 RE// W///H///=

ZCZC
SA212325 EHFS     VLISSINGEN AWS   NLD   8 m.
METAR EHFS 212325Z AUTO 27013KT 0350 -RA VV000 07/07 Q1032 W///H///=

22/02/2019 00.45 uur LT